Time;durP1;ratioP1;P1;durP2;ratioP2;P2;SDS_P1;SDS_P2;PMS_P1;PMS_P2;Temp;Humidity;BMP_temperature;BMP_pressure;BME280_temperature;BME280_humidity;BME280_pressure;Samples;Min_cycle;Max_cycle;Signal;HPM_P1;HPM_P2
2022/07/17 00:00:11;;;;;;;;;;;;;;;;;;5052805;28;19942;-43
2022/07/17 00:02:36;;;;;;;;;;;;;;;;;;5052607;28;20278;-42
2022/07/17 00:05:01;;;;;;;;;;;;;;;;;;5052515;28;20323;-42
2022/07/17 00:07:27;;;;;;;;;;;;;;;;;;5052452;28;20046;-42
2022/07/17 00:09:53;;;;;;;;;;;;;;;;;;5052411;28;19995;-43
2022/07/17 00:12:19;;;;;;;;;;;;;;;;;;5052325;28;19905;-42
2022/07/17 00:14:44;;;;;;;;;;;;;;;;;;5052236;28;19920;-43
2022/07/17 00:17:09;;;;;;;;;;;;;;;;;;5052111;28;19916;-43
2022/07/17 00:19:35;;;;;;;;;;;;;;;;;;5052057;28;20374;-41
2022/07/17 00:22:00;;;;;;;;;;;;;;;;;;5052187;28;19911;-41
2022/07/17 00:24:25;;;;;;;;;;;;;;;;;;5052175;28;20065;-41
2022/07/17 00:26:50;;;;;;;;;;;;;;;;;;5052333;28;19915;-41
2022/07/17 00:29:16;;;;;;;;;;;;;;;;;;5050813;28;19913;-41
2022/07/17 00:31:41;;;;;;;;;;;;;;;;;;5051895;28;19978;-41
2022/07/17 00:34:06;;;;;;;;;;;;;;;;;;5052307;28;19963;-41
2022/07/17 00:36:32;;;;;;;;;;;;;;;;;;5052020;28;19995;-41
2022/07/17 00:38:57;;;;;;;;;;;;;;;;;;5052091;28;20319;-41
2022/07/17 00:41:22;;;;;;;;;;;;;;;;;;5052186;28;19909;-40
2022/07/17 00:43:48;;;;;;;;;;;;;;;;;;5052157;28;19912;-40
2022/07/17 00:46:13;;;;;;;;;;;;;;;;;;5052030;28;19931;-41
2022/07/17 00:48:38;;;;;;;;;;;;;;;;;;5051423;28;19913;-40
2022/07/17 00:51:03;;;;;;;;;;;;;;;;;;5051437;28;19905;-41
2022/07/17 00:53:29;;;;;;;;;;;;;;;;;;5051890;28;20305;-43
2022/07/17 00:55:54;;;;;;;;;;;;;;;;;;5051816;28;20412;-41
2022/07/17 00:58:20;;;;;;;;;;;;;;;;;;5051732;28;19909;-40
2022/07/17 01:00:45;;;;;;;;;;;;;;;;;;5051443;28;19913;-40
2022/07/17 01:03:10;;;;;;;;;;;;;;;;;;5051785;28;19908;-40
2022/07/17 01:05:35;;;;;;;;;;;;;;;;;;5051573;28;19999;-40
2022/07/17 01:08:01;;;;;;;;;;;;;;;;;;5051638;28;20006;-40
2022/07/17 01:10:26;;;;;;;;;;;;;;;;;;5051897;28;20283;-40
2022/07/17 01:12:51;;;;;;;;;;;;;;;;;;5051454;28;20286;-40
2022/07/17 01:15:17;;;;;;;;;;;;;;;;;;5051411;28;20007;-40
2022/07/17 01:17:42;;;;;;;;;;;;;;;;;;5051508;28;19928;-40
2022/07/17 01:20:07;;;;;;;;;;;;;;;;;;5051778;28;19913;-40
2022/07/17 01:22:33;;;;;;;;;;;;;;;;;;5051303;28;19908;-40
2022/07/17 01:24:58;;;;;;;;;;;;;;;;;;5050356;28;19908;-41
2022/07/17 01:27:23;;;;;;;;;;;;;;;;;;5051738;28;19919;-41
2022/07/17 01:29:48;;;;;;;;;;;;;;;;;;5051326;28;19905;-41
2022/07/17 01:32:14;;;;;;;;;;;;;;;;;;5051627;28;20318;-40
2022/07/17 01:34:39;;;;;;;;;;;;;;;;;;5051283;28;20343;-42
2022/07/17 01:37:04;;;;;;;;;;;;;;;;;;5051384;28;20291;-42
2022/07/17 01:42:13;;;;;;;;;;;;;;;;;;5051554;28;19916;-43
2022/07/17 01:44:39;;;;;;;;;;;;;;;;;;5051453;28;19904;-42
2022/07/17 01:47:04;;;;;;;;;;;;;;;;;;5051549;28;19912;-42
2022/07/17 01:49:29;;;;;;;;;;;;;;;;;;5051042;28;20379;-42
2022/07/17 01:51:59;;;;;;;;;;;;;;;;;;5051292;28;20379;-42
2022/07/17 01:54:24;;;;;;;;;;;;;;;;;;5051200;28;19913;-43
2022/07/17 01:56:50;;;;;;;;;;;;;;;;;;5051038;28;20424;-42
2022/07/17 01:59:15;;;;;;;;;;;;;;;;;;5051067;28;19915;-43
2022/07/17 02:01:42;;;;;;;;;;;;;;;;;;5053565;28;19909;-43
2022/07/17 02:04:07;;;;;;;;;;;;;;;;;;5055053;28;19905;-44
2022/07/17 02:06:32;;;;;;;;;;;;;;;;;;5054672;28;20284;-42
2022/07/17 02:08:57;;;;;;;;;;;;;;;;;;5054759;28;19967;-42
2022/07/17 02:11:22;;;;;;;;;;;;;;;;;;5054630;28;19908;-42
2022/07/17 02:13:48;;;;;;;;;;;;;;;;;;5054522;28;20045;-43
2022/07/17 02:16:13;;;;;;;;;;;;;;;;;;5054661;28;19928;-43
2022/07/17 02:18:38;;;;;;;;;;;;;;;;;;5054399;28;19962;-44
2022/07/17 02:21:03;;;;;;;;;;;;;;;;;;5053100;28;19921;-42
2022/07/17 02:23:29;;;;;;;;;;;;;;;;;;5054679;28;19909;-42
2022/07/17 02:25:54;;;;;;;;;;;;;;;;;;5054593;28;19963;-42
2022/07/17 02:28:19;;;;;;;;;;;;;;;;;;5054580;28;19978;-42
2022/07/17 02:30:45;;;;;;;;;;;;;;;;;;5054206;28;19916;-43
2022/07/17 02:33:10;;;;;;;;;;;;;;;;;;5054462;28;19904;-42
2022/07/17 02:35:35;;;;;;;;;;;;;;;;;;5053288;28;19959;-43
2022/07/17 02:38:00;;;;;;;;;;;;;;;;;;5054455;28;20305;-44
2022/07/17 02:40:26;;;;;;;;;;;;;;;;;;5054053;28;20366;-42
2022/07/17 02:42:51;;;;;;;;;;;;;;;;;;5054153;28;19927;-42
2022/07/17 02:45:18;;;;;;;;;;;;;;;;;;5052893;28;19927;-44
2022/07/17 02:47:43;;;;;;;;;;;;;;;;;;5054129;28;19963;-42
2022/07/17 02:50:08;;;;;;;;;;;;;;;;;;5053925;28;20069;-42
2022/07/17 02:52:33;;;;;;;;;;;;;;;;;;5054044;28;19915;-43
2022/07/17 02:54:59;;;;;;;;;;;;;;;;;;5053870;28;20369;-43
2022/07/17 02:57:24;;;;;;;;;;;;;;;;;;5053870;28;19923;-42
2022/07/17 02:59:49;;;;;;;;;;;;;;;;;;5053598;28;19920;-42
2022/07/17 03:02:14;;;;;;;;;;;;;;;;;;5052412;28;19908;-42
2022/07/17 03:04:40;;;;;;;;;;;;;;;;;;5053865;28;19909;-44
2022/07/17 03:07:05;;;;;;;;;;;;;;;;;;5053699;28;20409;-42
2022/07/17 03:09:30;;;;;;;;;;;;;;;;;;5053522;28;20330;-43
2022/07/17 03:11:55;;;;;;;;;;;;;;;;;;5053212;28;19905;-43
2022/07/17 03:14:20;;;;;;;;;;;;;;;;;;5053097;28;20351;-42
2022/07/17 03:16:46;;;;;;;;;;;;;;;;;;5053197;28;19959;-44
2022/07/17 03:19:11;;;;;;;;;;;;;;;;;;5053713;28;19921;-41
2022/07/17 03:21:36;;;;;;;;;;;;;;;;;;5053409;28;19958;-43
2022/07/17 03:24:01;;;;;;;;;;;;;;;;;;5053643;28;19913;-43
2022/07/17 03:26:27;;;;;;;;;;;;;;;;;;5052029;28;19905;-42
2022/07/17 03:28:52;;;;;;;;;;;;;;;;;;5053119;28;19912;-43
2022/07/17 03:31:17;;;;;;;;;;;;;;;;;;5053164;28;19905;-43
2022/07/17 03:33:42;;;;;;;;;;;;;;;;;;5053042;28;20004;-43
2022/07/17 03:36:08;;;;;;;;;;;;;;;;;;5053020;28;19908;-42
2022/07/17 03:38:33;;;;;;;;;;;;;;;;;;5053027;28;19909;-43
2022/07/17 03:40:58;;;;;;;;;;;;;;;;;;5053361;28;19924;-43
2022/07/17 03:43:23;;;;;;;;;;;;;;;;;;5052943;28;20278;-41
2022/07/17 03:45:49;;;;;;;;;;;;;;;;;;5053155;28;20398;-42
2022/07/17 03:48:14;;;;;;;;;;;;;;;;;;5052856;28;19912;-42
2022/07/17 03:50:39;;;;;;;;;;;;;;;;;;5052676;28;19908;-42
2022/07/17 03:53:05;;;;;;;;;;;;;;;;;;5052787;28;20011;-44
2022/07/17 03:55:30;;;;;;;;;;;;;;;;;;5053028;28;19911;-42
2022/07/17 03:57:55;;;;;;;;;;;;;;;;;;5052681;28;20369;-43
2022/07/17 04:00:20;;;;;;;;;;;;;;;;;;5052539;28;19916;-42
2022/07/17 04:02:46;;;;;;;;;;;;;;;;;;5051231;28;19909;-43
2022/07/17 04:05:11;;;;;;;;;;;;;;;;;;5052591;28;19959;-42
2022/07/17 04:07:37;;;;;;;;;;;;;;;;;;5052366;28;19909;-42
2022/07/17 04:10:02;;;;;;;;;;;;;;;;;;5052509;28;19966;-43
2022/07/17 04:12:27;;;;;;;;;;;;;;;;;;5052546;28;19920;-43
2022/07/17 04:14:53;;;;;;;;;;;;;;;;;;5050900;28;19915;-43
2022/07/17 04:17:18;;;;;;;;;;;;;;;;;;5051162;28;20403;-42
2022/07/17 04:19:43;;;;;;;;;;;;;;;;;;5050867;28;19909;-42
2022/07/17 04:22:08;;;;;;;;;;;;;;;;;;5052193;28;19909;-43
2022/07/17 04:24:34;;;;;;;;;;;;;;;;;;5051853;28;19912;-42
2022/07/17 04:26:59;;;;;;;;;;;;;;;;;;5052112;28;19909;-42
2022/07/17 04:29:24;;;;;;;;;;;;;;;;;;5052172;28;19916;-42
2022/07/17 04:31:51;;;;;;;;;;;;;;;;;;5051991;28;19912;-42
2022/07/17 04:34:16;;;;;;;;;;;;;;;;;;5052042;28;19936;-42
2022/07/17 04:36:41;;;;;;;;;;;;;;;;;;5052327;28;19956;-43
2022/07/17 04:39:07;;;;;;;;;;;;;;;;;;5052150;28;19916;-42
2022/07/17 04:41:32;;;;;;;;;;;;;;;;;;5051802;28;20275;-42
2022/07/17 04:43:57;;;;;;;;;;;;;;;;;;5051921;28;19909;-42
2022/07/17 04:46:22;;;;;;;;;;;;;;;;;;5051928;28;19916;-42
2022/07/17 04:48:48;;;;;;;;;;;;;;;;;;5051824;28;19979;-42
2022/07/17 04:51:13;;;;;;;;;;;;;;;;;;5051774;28;19909;-42
2022/07/17 04:53:39;;;;;;;;;;;;;;;;;;5050450;28;20264;-43
2022/07/17 04:56:05;;;;;;;;;;;;;;;;;;5051738;28;19928;-44
2022/07/17 04:58:30;;;;;;;;;;;;;;;;;;5052099;28;19904;-41
2022/07/17 05:00:55;;;;;;;;;;;;;;;;;;5051509;28;19917;-42
2022/07/17 05:03:21;;;;;;;;;;;;;;;;;;5051939;28;19966;-42
2022/07/17 05:05:46;;;;;;;;;;;;;;;;;;5051627;28;20022;-41
2022/07/17 05:08:12;;;;;;;;;;;;;;;;;;5051899;28;19928;-43
2022/07/17 05:10:37;;;;;;;;;;;;;;;;;;5051388;28;19912;-42
2022/07/17 05:13:03;;;;;;;;;;;;;;;;;;5051668;28;19951;-45
2022/07/17 05:15:28;;;;;;;;;;;;;;;;;;5051441;28;20278;-42
2022/07/17 05:17:53;;;;;;;;;;;;;;;;;;5051587;28;20275;-42
2022/07/17 05:20:19;;;;;;;;;;;;;;;;;;5051478;28;19978;-42
2022/07/17 05:22:44;;;;;;;;;;;;;;;;;;5051402;28;20252;-42
2022/07/17 05:25:09;;;;;;;;;;;;;;;;;;5051758;28;19978;-43
2022/07/17 05:27:35;;;;;;;;;;;;;;;;;;5051463;28;20313;-41
2022/07/17 05:30:00;;;;;;;;;;;;;;;;;;5051370;28;19920;-43
2022/07/17 05:32:25;;;;;;;;;;;;;;;;;;5051446;28;20007;-42
2022/07/17 05:34:51;;;;;;;;;;;;;;;;;;5051626;28;19974;-42
2022/07/17 05:37:16;;;;;;;;;;;;;;;;;;5054883;28;20346;-41
2022/07/17 05:39:41;;;;;;;;;;;;;;;;;;5055166;28;19923;-42
2022/07/17 05:42:07;;;;;;;;;;;;;;;;;;5054094;28;19915;-42
2022/07/17 05:44:32;;;;;;;;;;;;;;;;;;5055171;28;20274;-42
2022/07/17 05:46:57;;;;;;;;;;;;;;;;;;5055505;28;19958;-42
2022/07/17 05:49:23;;;;;;;;;;;;;;;;;;5055176;28;19955;-42
2022/07/17 05:51:48;;;;;;;;;;;;;;;;;;5054926;28;19905;-41
2022/07/17 05:54:14;;;;;;;;;;;;;;;;;;5055079;28;19908;-42
2022/07/17 05:56:39;;;;;;;;;;;;;;;;;;5054997;28;19943;-42
2022/07/17 05:59:04;;;;;;;;;;;;;;;;;;5053681;28;20461;-41
2022/07/17 06:01:29;;;;;;;;;;;;;;;;;;5054812;28;19915;-41
2022/07/17 06:03:55;;;;;;;;;;;;;;;;;;5055026;28;19917;-42
2022/07/17 06:06:21;;;;;;;;;;;;;;;;;;5055044;28;20256;-42
2022/07/17 06:08:46;;;;;;;;;;;;;;;;;;5054976;28;19919;-43
2022/07/17 06:11:11;;;;;;;;;;;;;;;;;;5054776;28;20394;-41
2022/07/17 06:13:37;;;;;;;;;;;;;;;;;;5054565;28;20566;-42
2022/07/17 06:16:02;;;;;;;;;;;;;;;;;;5054682;28;20015;-41
2022/07/17 06:18:27;;;;;;;;;;;;;;;;;;5054591;28;19967;-42
2022/07/17 06:20:53;;;;;;;;;;;;;;;;;;5054554;28;19912;-42
2022/07/17 06:23:18;;;;;;;;;;;;;;;;;;5053256;28;19909;-42
2022/07/17 06:25:44;;;;;;;;;;;;;;;;;;5054348;28;19905;-42
2022/07/17 06:28:09;;;;;;;;;;;;;;;;;;5054387;28;20012;-42
2022/07/17 06:30:35;;;;;;;;;;;;;;;;;;5054245;28;19954;-43
2022/07/17 06:33:00;;;;;;;;;;;;;;;;;;5054249;28;19909;-42
2022/07/17 06:35:26;;;;;;;;;;;;;;;;;;5054508;28;19904;-42
2022/07/17 06:37:52;;;;;;;;;;;;;;;;;;5054159;28;19913;-42
2022/07/17 06:40:20;;;;;;;;;;;;;;;;;;5054031;28;19966;-43
2022/07/17 06:42:46;;;;;;;;;;;;;;;;;;5054086;28;19912;-43
2022/07/17 06:45:11;;;;;;;;;;;;;;;;;;5054035;28;19912;-42
2022/07/17 06:47:36;;;;;;;;;;;;;;;;;;5054107;28;20363;-41
2022/07/17 06:50:02;;;;;;;;;;;;;;;;;;5053819;28;19911;-43
2022/07/17 06:52:28;;;;;;;;;;;;;;;;;;5053982;28;19909;-43
2022/07/17 06:54:53;;;;;;;;;;;;;;;;;;5054015;28;19904;-41
2022/07/17 06:57:18;;;;;;;;;;;;;;;;;;5052628;28;19916;-42
2022/07/17 06:59:44;;;;;;;;;;;;;;;;;;5053972;28;20382;-42
2022/07/17 07:02:11;;;;;;;;;;;;;;;;;;5053645;28;19908;-42
2022/07/17 07:04:36;;;;;;;;;;;;;;;;;;5053980;28;19913;-42
2022/07/17 07:07:02;;;;;;;;;;;;;;;;;;5054021;28;19909;-43
2022/07/17 07:09:27;;;;;;;;;;;;;;;;;;5053470;28;20059;-42
2022/07/17 07:11:53;;;;;;;;;;;;;;;;;;5053599;28;19912;-41
2022/07/17 07:14:18;;;;;;;;;;;;;;;;;;5054028;28;19908;-43
2022/07/17 07:16:44;;;;;;;;;;;;;;;;;;5053191;28;19920;-41
2022/07/17 07:19:09;;;;;;;;;;;;;;;;;;5053456;28;20007;-42
2022/07/17 07:21:36;;;;;;;;;;;;;;;;;;5053419;28;19928;-43
2022/07/17 07:24:01;;;;;;;;;;;;;;;;;;5053341;28;20366;-42
2022/07/17 07:26:27;;;;;;;;;;;;;;;;;;5053636;28;19999;-42
2022/07/17 07:28:53;;;;;;;;;;;;;;;;;;5053179;28;20585;-41
2022/07/17 07:31:19;;;;;;;;;;;;;;;;;;5053232;28;19962;-41
2022/07/17 07:33:45;;;;;;;;;;;;;;;;;;5053133;28;19958;-42
2022/07/17 07:36:11;;;;;;;;;;;;;;;;;;5053219;28;19912;-42
2022/07/17 07:38:36;;;;;;;;;;;;;;;;;;5052938;28;20373;-42
2022/07/17 07:41:02;;;;;;;;;;;;;;;;;;5052954;28;19917;-43
2022/07/17 07:43:27;;;;;;;;;;;;;;;;;;5053246;28;19987;-44
2022/07/17 07:45:53;;;;;;;;;;;;;;;;;;5053004;28;20635;-42
2022/07/17 07:48:18;;;;;;;;;;;;;;;;;;5052895;28;20480;-42
2022/07/17 07:50:45;;;;;;;;;;;;;;;;;;5052767;28;19913;-41
2022/07/17 07:53:11;;;;;;;;;;;;;;;;;;5052810;28;19905;-42
2022/07/17 07:55:37;;;;;;;;;;;;;;;;;;5052724;28;19909;-43
2022/07/17 07:58:02;;;;;;;;;;;;;;;;;;5052413;28;19909;-41
2022/07/17 08:00:28;;;;;;;;;;;;;;;;;;5050911;28;19921;-42
2022/07/17 08:02:53;;;;;;;;;;;;;;;;;;5052863;28;19947;-42
2022/07/17 08:05:19;;;;;;;;;;;;;;;;;;5052540;28;19963;-43
2022/07/17 08:07:44;;;;;;;;;;;;;;;;;;5051151;28;19911;-42
2022/07/17 08:10:10;;;;;;;;;;;;;;;;;;5051242;28;20007;-42
2022/07/17 08:12:35;;;;;;;;;;;;;;;;;;5052580;28;19932;-42
2022/07/17 08:15:00;;;;;;;;;;;;;;;;;;5052209;28;19912;-41
2022/07/17 08:17:26;;;;;;;;;;;;;;;;;;5052670;28;20355;-43
2022/07/17 08:19:51;;;;;;;;;;;;;;;;;;5052238;28;20417;-43
2022/07/17 08:22:16;;;;;;;;;;;;;;;;;;5052498;28;19905;-43
2022/07/17 08:24:42;;;;;;;;;;;;;;;;;;5052494;28;19966;-42
2022/07/17 08:27:07;;;;;;;;;;;;;;;;;;5052242;28;19963;-42
2022/07/17 08:29:32;;;;;;;;;;;;;;;;;;5052490;28;19912;-43
2022/07/17 08:31:58;;;;;;;;;;;;;;;;;;5052017;28;20373;-43
2022/07/17 08:34:23;;;;;;;;;;;;;;;;;;5052114;28;20400;-42
2022/07/17 08:36:49;;;;;;;;;;;;;;;;;;5052210;28;19905;-42
2022/07/17 08:39:14;;;;;;;;;;;;;;;;;;5051975;28;19952;-43
2022/07/17 08:41:40;;;;;;;;;;;;;;;;;;5051939;28;19957;-42
2022/07/17 08:44:05;;;;;;;;;;;;;;;;;;5052211;28;19920;-42
2022/07/17 08:46:30;;;;;;;;;;;;;;;;;;5051906;28;20396;-42
2022/07/17 08:48:56;;;;;;;;;;;;;;;;;;5050594;28;19912;-42
2022/07/17 08:51:21;;;;;;;;;;;;;;;;;;5052038;28;19905;-42
2022/07/17 08:53:46;;;;;;;;;;;;;;;;;;5051808;28;20322;-42
2022/07/17 08:56:12;;;;;;;;;;;;;;;;;;5052040;28;19992;-42
2022/07/17 08:58:37;;;;;;;;;;;;;;;;;;5051729;28;19912;-44
2022/07/17 09:01:03;;;;;;;;;;;;;;;;;;5051874;28;20263;-42
2022/07/17 09:03:28;;;;;;;;;;;;;;;;;;5051667;28;19943;-41
2022/07/17 09:05:54;;;;;;;;;;;;;;;;;;5051665;28;19912;-43
2022/07/17 09:08:22;;;;;;;;;;;;;;;;;;5051707;28;19909;-43
2022/07/17 09:10:48;;;;;;;;;;;;;;;;;;5052415;28;19913;-44
2022/07/17 09:13:13;;;;;;;;;;;;;;;;;;5055822;28;19915;-43
2022/07/17 09:15:39;;;;;;;;;;;;;;;;;;5055714;28;19940;-42
2022/07/17 09:18:04;;;;;;;;;;;;;;;;;;5055985;28;19913;-42
2022/07/17 09:20:30;;;;;;;;;;;;;;;;;;5055513;28;20038;-43
2022/07/17 09:22:56;;;;;;;;;;;;;;;;;;5055569;28;19940;-42
2022/07/17 09:25:21;;;;;;;;;;;;;;;;;;5055576;28;19950;-42
2022/07/17 09:27:46;;;;;;;;;;;;;;;;;;5055470;28;19909;-42
2022/07/17 09:30:11;;;;;;;;;;;;;;;;;;5055508;28;19909;-42
2022/07/17 09:32:37;;;;;;;;;;;;;;;;;;5055700;28;19957;-42
2022/07/17 09:35:02;;;;;;;;;;;;;;;;;;5055431;28;19931;-42
2022/07/17 09:37:28;;;;;;;;;;;;;;;;;;5055767;28;20262;-42
2022/07/17 09:39:54;;;;;;;;;;;;;;;;;;5055062;28;19997;-41
2022/07/17 09:42:19;;;;;;;;;;;;;;;;;;5055326;28;19948;-42
2022/07/17 09:44:44;;;;;;;;;;;;;;;;;;5055218;28;19912;-42
2022/07/17 09:47:10;;;;;;;;;;;;;;;;;;5055068;28;19913;-42
2022/07/17 09:49:35;;;;;;;;;;;;;;;;;;5054272;28;19916;-44
2022/07/17 09:52:01;;;;;;;;;;;;;;;;;;5055084;28;19909;-41
2022/07/17 09:54:26;;;;;;;;;;;;;;;;;;5055569;28;19966;-43
2022/07/17 09:56:52;;;;;;;;;;;;;;;;;;5054964;28;19908;-43
2022/07/17 09:59:18;;;;;;;;;;;;;;;;;;5055218;28;19905;-42
2022/07/17 10:01:44;;;;;;;;;;;;;;;;;;5054889;28;20313;-43
2022/07/17 10:04:10;;;;;;;;;;;;;;;;;;5055216;28;19909;-42
2022/07/17 10:06:35;;;;;;;;;;;;;;;;;;5054855;28;19917;-43
2022/07/17 10:09:02;;;;;;;;;;;;;;;;;;5054766;28;19909;-42
2022/07/17 10:11:28;;;;;;;;;;;;;;;;;;5054934;28;19909;-46
2022/07/17 10:13:53;;;;;;;;;;;;;;;;;;5054730;28;20374;-43
2022/07/17 10:16:18;;;;;;;;;;;;;;;;;;5053283;28;19976;-42
2022/07/17 10:18:44;;;;;;;;;;;;;;;;;;5054495;28;19905;-42
2022/07/17 10:21:09;;;;;;;;;;;;;;;;;;5054462;28;19920;-42
2022/07/17 10:23:35;;;;;;;;;;;;;;;;;;5054269;28;20370;-43
2022/07/17 10:26:01;;;;;;;;;;;;;;;;;;5054449;28;19966;-43
2022/07/17 10:28:26;;;;;;;;;;;;;;;;;;5054471;28;20007;-42
2022/07/17 10:30:53;;;;;;;;;;;;;;;;;;5054511;28;19912;-43
2022/07/17 10:33:18;;;;;;;;;;;;;;;;;;5054666;28;19987;-42
2022/07/17 10:35:45;;;;;;;;;;;;;;;;;;5054193;28;20421;-42
2022/07/17 10:38:13;;;;;;;;;;;;;;;;;;5054194;28;20003;-42
2022/07/17 10:40:39;;;;;;;;;;;;;;;;;;5054056;28;19917;-42
2022/07/17 10:43:05;;;;;;;;;;;;;;;;;;5054031;28;19927;-41
2022/07/17 10:45:33;;;;;;;;;;;;;;;;;;5054103;28;19939;-42
2022/07/17 10:47:58;;;;;;;;;;;;;;;;;;5054036;28;20351;-41
2022/07/17 10:50:24;;;;;;;;;;;;;;;;;;5053956;28;19915;-42
2022/07/17 10:52:49;;;;;;;;;;;;;;;;;;5054449;28;19905;-43
2022/07/17 10:55:15;;;;;;;;;;;;;;;;;;5054225;28;20281;-43
2022/07/17 10:57:40;;;;;;;;;;;;;;;;;;5053777;28;19905;-42
2022/07/17 11:00:05;;;;;;;;;;;;;;;;;;5052465;28;20259;-42
2022/07/17 11:02:31;;;;;;;;;;;;;;;;;;5053742;28;19960;-43
2022/07/17 11:04:56;;;;;;;;;;;;;;;;;;5053974;28;19960;-43
2022/07/17 11:07:22;;;;;;;;;;;;;;;;;;5053783;28;19905;-42
2022/07/17 11:09:48;;;;;;;;;;;;;;;;;;5052225;28;19908;-44
2022/07/17 11:12:17;;;;;;;;;;;;;;;;;;5053648;28;20008;-43
2022/07/17 11:14:42;;;;;;;;;;;;;;;;;;5053477;28;19999;-44
2022/07/17 11:17:08;;;;;;;;;;;;;;;;;;5053356;28;20426;-43
2022/07/17 11:19:33;;;;;;;;;;;;;;;;;;5053322;28;20244;-43
2022/07/17 11:21:59;;;;;;;;;;;;;;;;;;5053326;28;19912;-43
2022/07/17 11:24:26;;;;;;;;;;;;;;;;;;5053470;28;19970;-42
2022/07/17 11:26:54;;;;;;;;;;;;;;;;;;5053170;28;19911;-43
2022/07/17 11:29:20;;;;;;;;;;;;;;;;;;5053305;28;19912;-42
2022/07/17 11:31:45;;;;;;;;;;;;;;;;;;5053120;28;20007;-42
2022/07/17 11:34:11;;;;;;;;;;;;;;;;;;5052302;28;19935;-43
2022/07/17 11:36:36;;;;;;;;;;;;;;;;;;5053199;28;19915;-43
2022/07/17 11:39:02;;;;;;;;;;;;;;;;;;5053039;28;19912;-44
2022/07/17 11:41:27;;;;;;;;;;;;;;;;;;5053100;28;19960;-43
2022/07/17 11:43:53;;;;;;;;;;;;;;;;;;5053156;28;20454;-41
2022/07/17 11:46:18;;;;;;;;;;;;;;;;;;5052988;28;19911;-42
2022/07/17 11:48:43;;;;;;;;;;;;;;;;;;5052753;28;19915;-44
2022/07/17 11:51:08;;;;;;;;;;;;;;;;;;5053055;28;20266;-42
2022/07/17 11:53:34;;;;;;;;;;;;;;;;;;5053130;28;19909;-42
2022/07/17 11:56:00;;;;;;;;;;;;;;;;;;5052612;28;19904;-43
2022/07/17 11:58:25;;;;;;;;;;;;;;;;;;5052758;28;19913;-42
2022/07/17 12:00:51;;;;;;;;;;;;;;;;;;5051259;28;19921;-43
2022/07/17 12:03:16;;;;;;;;;;;;;;;;;;5052876;28;19909;-43
2022/07/17 12:05:45;;;;;;;;;;;;;;;;;;5052556;28;20283;-43
2022/07/17 12:08:13;;;;;;;;;;;;;;;;;;5052526;28;20276;-42
2022/07/17 12:10:39;;;;;;;;;;;;;;;;;;5051108;28;19911;-42
2022/07/17 12:13:05;;;;;;;;;;;;;;;;;;5052513;28;19908;-42
2022/07/17 12:15:33;;;;;;;;;;;;;;;;;;5050909;28;19959;-42
2022/07/17 12:17:58;;;;;;;;;;;;;;;;;;5052382;28;19918;-43
2022/07/17 12:20:24;;;;;;;;;;;;;;;;;;5052657;28;19913;-42
2022/07/17 12:22:51;;;;;;;;;;;;;;;;;;5050840;28;20331;-41
2022/07/17 12:25:17;;;;;;;;;;;;;;;;;;5052268;28;20018;-43
2022/07/17 12:27:42;;;;;;;;;;;;;;;;;;5052344;28;20279;-42
2022/07/17 12:30:07;;;;;;;;;;;;;;;;;;5052045;28;20163;-43
2022/07/17 12:32:33;;;;;;;;;;;;;;;;;;5052185;28;19909;-43
2022/07/17 12:34:58;;;;;;;;;;;;;;;;;;5052249;28;19909;-42
2022/07/17 12:37:24;;;;;;;;;;;;;;;;;;5052019;28;20175;-42
2022/07/17 12:39:49;;;;;;;;;;;;;;;;;;5051748;28;19919;-42
2022/07/17 12:42:15;;;;;;;;;;;;;;;;;;5052006;28;19917;-42
2022/07/17 12:44:42;;;;;;;;;;;;;;;;;;5050416;28;20362;-43
2022/07/17 12:47:07;;;;;;;;;;;;;;;;;;5052153;28;19909;-43
2022/07/17 12:49:33;;;;;;;;;;;;;;;;;;5051797;28;19927;-44
2022/07/17 12:51:58;;;;;;;;;;;;;;;;;;5051999;28;19936;-42
2022/07/17 12:54:24;;;;;;;;;;;;;;;;;;5051858;28;20279;-42
2022/07/17 12:56:49;;;;;;;;;;;;;;;;;;5051691;28;20516;-43
2022/07/17 12:59:15;;;;;;;;;;;;;;;;;;5051731;28;19905;-43
2022/07/17 13:01:40;;;;;;;;;;;;;;;;;;5051991;28;20011;-42
2022/07/17 13:04:06;;;;;;;;;;;;;;;;;;5052105;28;19919;-42
2022/07/17 13:06:32;;;;;;;;;;;;;;;;;;5051869;28;19916;-41
2022/07/17 13:08:58;;;;;;;;;;;;;;;;;;5051639;28;19908;-42
2022/07/17 13:11:23;;;;;;;;;;;;;;;;;;5051495;28;19920;-42
2022/07/17 13:13:49;;;;;;;;;;;;;;;;;;5051481;28;19995;-42
2022/07/17 13:16:15;;;;;;;;;;;;;;;;;;5051501;28;20374;-42
2022/07/17 13:18:40;;;;;;;;;;;;;;;;;;5050246;28;19919;-42
2022/07/17 13:21:06;;;;;;;;;;;;;;;;;;5051474;28;19924;-42
2022/07/17 13:23:31;;;;;;;;;;;;;;;;;;5051579;28;19909;-42
2022/07/17 13:25:57;;;;;;;;;;;;;;;;;;5051447;28;20023;-42
2022/07/17 13:28:23;;;;;;;;;;;;;;;;;;5051453;28;19916;-41
2022/07/17 13:30:48;;;;;;;;;;;;;;;;;;5051293;28;19966;-43
2022/07/17 13:33:14;;;;;;;;;;;;;;;;;;5051509;28;19908;-42
2022/07/17 13:35:41;;;;;;;;;;;;;;;;;;5051486;28;19974;-41
2022/07/17 13:38:07;;;;;;;;;;;;;;;;;;5051356;28;20363;-43
2022/07/17 13:40:33;;;;;;;;;;;;;;;;;;5051309;28;19923;-42
2022/07/17 13:42:58;;;;;;;;;;;;;;;;;;5051594;28;19908;-42
2022/07/17 13:45:24;;;;;;;;;;;;;;;;;;5051328;28;19909;-44
2022/07/17 13:47:50;;;;;;;;;;;;;;;;;;5051079;28;19905;-42
2022/07/17 13:50:16;;;;;;;;;;;;;;;;;;5051229;28;19916;-42
2022/07/17 13:52:45;;;;;;;;;;;;;;;;;;5051224;28;19908;-42
2022/07/17 13:55:11;;;;;;;;;;;;;;;;;;5051215;28;19912;-43
2022/07/17 13:57:36;;;;;;;;;;;;;;;;;;5053571;28;19909;-43
2022/07/17 14:00:05;;;;;;;;;;;;;;;;;;5054891;28;20290;-42
2022/07/17 14:02:35;;;;;;;;;;;;;;;;;;5054956;28;20283;-42
2022/07/17 14:05:00;;;;;;;;;;;;;;;;;;5053540;28;19913;-42
2022/07/17 14:07:26;;;;;;;;;;;;;;;;;;5054905;28;19915;-43
2022/07/17 14:09:51;;;;;;;;;;;;;;;;;;5054602;28;19908;-42
2022/07/17 14:12:16;;;;;;;;;;;;;;;;;;5055122;28;20006;-42
2022/07/17 14:14:42;;;;;;;;;;;;;;;;;;5054647;28;19917;-42
2022/07/17 14:17:08;;;;;;;;;;;;;;;;;;5054519;28;19917;-43
2022/07/17 14:19:36;;;;;;;;;;;;;;;;;;5054757;28;19966;-42
2022/07/17 14:22:01;;;;;;;;;;;;;;;;;;5054562;28;19908;-43
2022/07/17 14:24:26;;;;;;;;;;;;;;;;;;5054731;28;20015;-43
2022/07/17 14:26:52;;;;;;;;;;;;;;;;;;5054676;28;19909;-44
2022/07/17 14:29:17;;;;;;;;;;;;;;;;;;5054391;28;20013;-42
2022/07/17 14:31:43;;;;;;;;;;;;;;;;;;5054205;28;19962;-42
2022/07/17 14:34:08;;;;;;;;;;;;;;;;;;5054378;28;19912;-42
2022/07/17 14:36:33;;;;;;;;;;;;;;;;;;5054627;28;19955;-42
2022/07/17 14:38:59;;;;;;;;;;;;;;;;;;5054154;28;20600;-43
2022/07/17 14:41:26;;;;;;;;;;;;;;;;;;5054469;28;19913;-42
2022/07/17 14:43:52;;;;;;;;;;;;;;;;;;5054154;28;19920;-42
2022/07/17 14:46:17;;;;;;;;;;;;;;;;;;5054086;28;19904;-43
2022/07/17 14:48:43;;;;;;;;;;;;;;;;;;5054087;28;19916;-42
2022/07/17 14:51:11;;;;;;;;;;;;;;;;;;5053962;28;19915;-42
2022/07/17 14:53:37;;;;;;;;;;;;;;;;;;5054223;28;20318;-43
2022/07/17 14:56:02;;;;;;;;;;;;;;;;;;5053882;28;19905;-42
2022/07/17 14:58:28;;;;;;;;;;;;;;;;;;5053825;28;20345;-43
2022/07/17 15:00:53;;;;;;;;;;;;;;;;;;5053609;28;19923;-42
2022/07/17 15:03:19;;;;;;;;;;;;;;;;;;5053794;28;19982;-43
2022/07/17 15:05:44;;;;;;;;;;;;;;;;;;5053763;28;19908;-43
2022/07/17 15:08:10;;;;;;;;;;;;;;;;;;5052597;28;19956;-43
2022/07/17 15:10:35;;;;;;;;;;;;;;;;;;5053792;28;19955;-42
2022/07/17 15:13:01;;;;;;;;;;;;;;;;;;5053884;28;19959;-42
2022/07/17 15:15:26;;;;;;;;;;;;;;;;;;5053513;28;19909;-42
2022/07/17 15:17:52;;;;;;;;;;;;;;;;;;5053584;28;19909;-42
2022/07/17 15:20:17;;;;;;;;;;;;;;;;;;5053359;28;19923;-43
2022/07/17 15:22:42;;;;;;;;;;;;;;;;;;5053314;28;19915;-43
2022/07/17 15:25:08;;;;;;;;;;;;;;;;;;5053701;28;19904;-42
2022/07/17 15:27:33;;;;;;;;;;;;;;;;;;5053391;28;20322;-42
2022/07/17 15:29:59;;;;;;;;;;;;;;;;;;5053109;28;19977;-42
2022/07/17 15:32:24;;;;;;;;;;;;;;;;;;5053325;28;19908;-44
2022/07/17 15:34:50;;;;;;;;;;;;;;;;;;5053130;28;19979;-43
2022/07/17 15:37:15;;;;;;;;;;;;;;;;;;5053477;28;19909;-42
2022/07/17 15:39:41;;;;;;;;;;;;;;;;;;5053055;28;20343;-43
2022/07/17 15:42:06;;;;;;;;;;;;;;;;;;5052940;28;19935;-42
2022/07/17 15:44:32;;;;;;;;;;;;;;;;;;5053305;28;19990;-42
2022/07/17 15:46:57;;;;;;;;;;;;;;;;;;5051657;28;20293;-43
2022/07/17 15:49:23;;;;;;;;;;;;;;;;;;5053126;28;20466;-42
2022/07/17 15:51:49;;;;;;;;;;;;;;;;;;5052877;28;19952;-44
2022/07/17 15:54:15;;;;;;;;;;;;;;;;;;5052815;28;19951;-42
2022/07/17 15:56:41;;;;;;;;;;;;;;;;;;5052706;28;20275;-44
2022/07/17 15:59:06;;;;;;;;;;;;;;;;;;5052698;28;19919;-43
2022/07/17 16:01:32;;;;;;;;;;;;;;;;;;5053218;28;19928;-43
2022/07/17 16:03:57;;;;;;;;;;;;;;;;;;5052829;28;20386;-42
2022/07/17 16:06:23;;;;;;;;;;;;;;;;;;5052620;28;19908;-42
2022/07/17 16:08:48;;;;;;;;;;;;;;;;;;5052465;28;19911;-43
2022/07/17 16:11:14;;;;;;;;;;;;;;;;;;5052520;28;19948;-44
2022/07/17 16:13:40;;;;;;;;;;;;;;;;;;5052461;28;19909;-43
2022/07/17 16:16:05;;;;;;;;;;;;;;;;;;5052304;28;19917;-43
2022/07/17 16:18:31;;;;;;;;;;;;;;;;;;5052328;28;20328;-43
2022/07/17 16:20:56;;;;;;;;;;;;;;;;;;5051875;28;19921;-42
2022/07/17 16:23:23;;;;;;;;;;;;;;;;;;5052282;28;19963;-42
2022/07/17 16:25:48;;;;;;;;;;;;;;;;;;5052431;28;19974;-42
2022/07/17 16:28:13;;;;;;;;;;;;;;;;;;5052534;28;19958;-42
2022/07/17 16:30:39;;;;;;;;;;;;;;;;;;5052145;28;20466;-42
2022/07/17 16:33:04;;;;;;;;;;;;;;;;;;5051945;28;19930;-43
2022/07/17 16:35:30;;;;;;;;;;;;;;;;;;5052213;28;20042;-42